sensor_id;sensor_type;location;lat;lon;timestamp;temperature;humidity
5848;DHT22;8756;49.29324300;8.70599800;2022-10-16T00:01:23;15.80;99.90
5848;DHT22;8756;49.29324300;8.70599800;2022-10-16T00:03:50;15.80;99.90
5848;DHT22;8756;49.29324300;8.70599800;2022-10-16T00:06:18;15.80;99.90
5848;DHT22;8756;49.29324300;8.70599800;2022-10-16T00:08:46;15.90;99.90
5848;DHT22;8756;49.29324300;8.70599800;2022-10-16T00:13:49;15.90;99.90
5848;DHT22;8756;49.29324300;8.70599800;2022-10-16T00:16:18;15.90;99.90
5848;DHT22;8756;49.29324300;8.70599800;2022-10-16T00:18:44;15.90;99.90
5848;DHT22;8756;49.29324300;8.70599800;2022-10-16T00:21:12;15.90;99.90
5848;DHT22;8756;49.29324300;8.70599800;2022-10-16T00:23:42;15.90;99.90
5848;DHT22;8756;49.29324300;8.70599800;2022-10-16T00:26:11;15.90;99.90
5848;DHT22;8756;49.29324300;8.70599800;2022-10-16T00:28:38;15.90;99.90
5848;DHT22;8756;49.29324300;8.70599800;2022-10-16T00:31:06;15.90;99.90
5848;DHT22;8756;49.29324300;8.70599800;2022-10-16T00:33:34;15.90;99.90
5848;DHT22;8756;49.29324300;8.70599800;2022-10-16T00:36:00;15.90;99.90
5848;DHT22;8756;49.29324300;8.70599800;2022-10-16T00:38:27;15.90;99.90
5848;DHT22;8756;49.29324300;8.70599800;2022-10-16T00:40:53;15.90;99.90
5848;DHT22;8756;49.29324300;8.70599800;2022-10-16T00:46:10;15.90;99.90
5848;DHT22;8756;49.29324300;8.70599800;2022-10-16T00:51:40;15.90;99.90
5848;DHT22;8756;49.29324300;8.70599800;2022-10-16T00:54:28;15.90;99.90
5848;DHT22;8756;49.29324300;8.70599800;2022-10-16T00:56:57;15.90;99.90
5848;DHT22;8756;49.29324300;8.70599800;2022-10-16T00:59:40;15.90;99.90
5848;DHT22;8756;49.29324300;8.70599800;2022-10-16T01:02:08;15.90;99.90
5848;DHT22;8756;49.29324300;8.70599800;2022-10-16T01:04:39;15.90;99.90
5848;DHT22;8756;49.29324300;8.70599800;2022-10-16T01:15:32;15.80;99.90
5848;DHT22;8756;49.29324300;8.70599800;2022-10-16T01:30:04;15.80;99.90
5848;DHT22;8756;49.29324300;8.70599800;2022-10-16T01:32:41;15.80;99.90
5848;DHT22;8756;49.29324300;8.70599800;2022-10-16T01:35:16;15.80;99.90
5848;DHT22;8756;49.29324300;8.70599800;2022-10-16T01:37:56;15.80;99.90
5848;DHT22;8756;49.29324300;8.70599800;2022-10-16T01:40:36;15.80;99.90
5848;DHT22;8756;49.29324300;8.70599800;2022-10-16T01:43:15;15.80;99.90
5848;DHT22;8756;49.29324300;8.70599800;2022-10-16T01:45:45;15.80;99.90
5848;DHT22;8756;49.29324300;8.70599800;2022-10-16T01:48:14;15.80;99.90
5848;DHT22;8756;49.29324300;8.70599800;2022-10-16T01:50:44;15.80;99.90
5848;DHT22;8756;49.29324300;8.70599800;2022-10-16T01:53:22;15.80;99.90
5848;DHT22;8756;49.29324300;8.70599800;2022-10-16T01:55:50;15.80;99.90
5848;DHT22;8756;49.29324300;8.70599800;2022-10-16T01:58:18;15.70;99.90
5848;DHT22;8756;49.29324300;8.70599800;2022-10-16T02:00:45;15.80;99.90
5848;DHT22;8756;49.29324300;8.70599800;2022-10-16T02:03:15;15.80;99.90
5848;DHT22;8756;49.29324300;8.70599800;2022-10-16T02:05:54;15.70;99.90
5848;DHT22;8756;49.29324300;8.70599800;2022-10-16T02:08:23;15.70;99.90
5848;DHT22;8756;49.29324300;8.70599800;2022-10-16T02:10:51;15.80;99.90
5848;DHT22;8756;49.29324300;8.70599800;2022-10-16T02:13:39;15.80;99.90
5848;DHT22;8756;49.29324300;8.70599800;2022-10-16T02:16:11;15.80;99.90
5848;DHT22;8756;49.29324300;8.70599800;2022-10-16T02:18:38;15.80;99.90
5848;DHT22;8756;49.29324300;8.70599800;2022-10-16T02:21:13;15.80;99.90
5848;DHT22;8756;49.29324300;8.70599800;2022-10-16T02:27:20;15.80;99.90
5848;DHT22;8756;49.29324300;8.70599800;2022-10-16T02:29:57;15.80;99.90
5848;DHT22;8756;49.29324300;8.70599800;2022-10-16T02:32:34;15.80;99.90
5848;DHT22;8756;49.29324300;8.70599800;2022-10-16T02:35:02;15.80;99.90
5848;DHT22;8756;49.29324300;8.70599800;2022-10-16T02:37:29;15.80;99.90
5848;DHT22;8756;49.29324300;8.70599800;2022-10-16T02:39:57;15.80;99.90
5848;DHT22;8756;49.29324300;8.70599800;2022-10-16T02:42:28;15.80;99.90
5848;DHT22;8756;49.29324300;8.70599800;2022-10-16T02:44:57;15.80;99.90
5848;DHT22;8756;49.29324300;8.70599800;2022-10-16T02:47:22;15.80;99.90
5848;DHT22;8756;49.29324300;8.70599800;2022-10-16T02:49:48;15.80;99.90
5848;DHT22;8756;49.29324300;8.70599800;2022-10-16T02:52:14;15.80;99.90
5848;DHT22;8756;49.29324300;8.70599800;2022-10-16T02:54:40;15.80;99.90
5848;DHT22;8756;49.29324300;8.70599800;2022-10-16T02:57:05;15.70;99.90
5848;DHT22;8756;49.29324300;8.70599800;2022-10-16T02:59:31;15.70;99.90
5848;DHT22;8756;49.29324300;8.70599800;2022-10-16T03:01:57;15.70;99.90
5848;DHT22;8756;49.29324300;8.70599800;2022-10-16T03:04:22;15.80;99.90
5848;DHT22;8756;49.29324300;8.70599800;2022-10-16T03:06:48;15.70;99.90
5848;DHT22;8756;49.29324300;8.70599800;2022-10-16T03:09:14;15.70;99.90
5848;DHT22;8756;49.29324300;8.70599800;2022-10-16T03:11:40;15.70;99.90
5848;DHT22;8756;49.29324300;8.70599800;2022-10-16T03:14:06;15.70;99.90
5848;DHT22;8756;49.29324300;8.70599800;2022-10-16T03:16:32;15.70;99.90
5848;DHT22;8756;49.29324300;8.70599800;2022-10-16T03:18:57;15.70;99.90
5848;DHT22;8756;49.29324300;8.70599800;2022-10-16T03:21:23;15.70;99.90
5848;DHT22;8756;49.29324300;8.70599800;2022-10-16T03:23:49;15.70;99.90
5848;DHT22;8756;49.29324300;8.70599800;2022-10-16T03:26:14;15.70;99.90
5848;DHT22;8756;49.29324300;8.70599800;2022-10-16T03:28:40;15.70;99.90
5848;DHT22;8756;49.29324300;8.70599800;2022-10-16T03:31:06;15.70;99.90
5848;DHT22;8756;49.29324300;8.70599800;2022-10-16T03:33:32;15.60;99.90
5848;DHT22;8756;49.29324300;8.70599800;2022-10-16T03:35:57;15.60;99.90
5848;DHT22;8756;49.29324300;8.70599800;2022-10-16T03:38:23;15.70;99.90
5848;DHT22;8756;49.29324300;8.70599800;2022-10-16T03:40:49;15.60;99.90
5848;DHT22;8756;49.29324300;8.70599800;2022-10-16T03:43:15;15.60;99.90
5848;DHT22;8756;49.29324300;8.70599800;2022-10-16T03:45:40;15.60;99.90
5848;DHT22;8756;49.29324300;8.70599800;2022-10-16T03:48:06;15.60;99.90
5848;DHT22;8756;49.29324300;8.70599800;2022-10-16T03:50:32;15.60;99.90
5848;DHT22;8756;49.29324300;8.70599800;2022-10-16T03:52:57;15.60;99.90
5848;DHT22;8756;49.29324300;8.70599800;2022-10-16T03:55:23;15.60;99.90
5848;DHT22;8756;49.29324300;8.70599800;2022-10-16T03:57:49;15.60;99.90
5848;DHT22;8756;49.29324300;8.70599800;2022-10-16T04:00:15;15.60;99.90
5848;DHT22;8756;49.29324300;8.70599800;2022-10-16T04:02:41;15.60;99.90
5848;DHT22;8756;49.29324300;8.70599800;2022-10-16T04:05:06;15.60;99.90
5848;DHT22;8756;49.29324300;8.70599800;2022-10-16T04:07:32;15.60;99.90
5848;DHT22;8756;49.29324300;8.70599800;2022-10-16T04:09:58;15.60;99.90
5848;DHT22;8756;49.29324300;8.70599800;2022-10-16T04:12:27;15.60;99.90
5848;DHT22;8756;49.29324300;8.70599800;2022-10-16T04:14:53;15.60;99.90
5848;DHT22;8756;49.29324300;8.70599800;2022-10-16T04:17:19;15.60;99.90
5848;DHT22;8756;49.29324300;8.70599800;2022-10-16T04:19:45;15.60;99.90
5848;DHT22;8756;49.29324300;8.70599800;2022-10-16T04:22:10;15.60;99.90
5848;DHT22;8756;49.29324300;8.70599800;2022-10-16T04:24:36;15.60;99.90
5848;DHT22;8756;49.29324300;8.70599800;2022-10-16T04:27:02;15.60;99.90
5848;DHT22;8756;49.29324300;8.70599800;2022-10-16T04:29:28;15.60;99.90
5848;DHT22;8756;49.29324300;8.70599800;2022-10-16T04:31:53;15.60;99.90
5848;DHT22;8756;49.29324300;8.70599800;2022-10-16T04:34:20;15.60;99.90
5848;DHT22;8756;49.29324300;8.70599800;2022-10-16T04:36:49;15.60;99.90
5848;DHT22;8756;49.29324300;8.70599800;2022-10-16T04:39:15;15.60;99.90
5848;DHT22;8756;49.29324300;8.70599800;2022-10-16T04:41:42;15.60;99.90
5848;DHT22;8756;49.29324300;8.70599800;2022-10-16T04:44:07;15.60;99.90
5848;DHT22;8756;49.29324300;8.70599800;2022-10-16T04:46:33;15.60;99.90
5848;DHT22;8756;49.29324300;8.70599800;2022-10-16T04:48:59;15.60;99.90
5848;DHT22;8756;49.29324300;8.70599800;2022-10-16T04:51:25;15.60;99.90
5848;DHT22;8756;49.29324300;8.70599800;2022-10-16T04:53:51;15.60;99.90
5848;DHT22;8756;49.29324300;8.70599800;2022-10-16T04:56:17;15.60;99.90
5848;DHT22;8756;49.29324300;8.70599800;2022-10-16T04:58:43;15.60;99.90
5848;DHT22;8756;49.29324300;8.70599800;2022-10-16T05:01:08;15.60;99.90
5848;DHT22;8756;49.29324300;8.70599800;2022-10-16T05:03:34;15.50;99.90
5848;DHT22;8756;49.29324300;8.70599800;2022-10-16T05:06:00;15.50;99.90
5848;DHT22;8756;49.29324300;8.70599800;2022-10-16T05:08:26;15.50;99.90
5848;DHT22;8756;49.29324300;8.70599800;2022-10-16T05:10:51;15.50;99.90
5848;DHT22;8756;49.29324300;8.70599800;2022-10-16T05:13:17;15.50;99.90
5848;DHT22;8756;49.29324300;8.70599800;2022-10-16T05:15:47;15.50;99.90
5848;DHT22;8756;49.29324300;8.70599800;2022-10-16T05:18:13;15.40;99.90
5848;DHT22;8756;49.29324300;8.70599800;2022-10-16T05:20:39;15.50;99.90
5848;DHT22;8756;49.29324300;8.70599800;2022-10-16T05:23:09;15.50;99.90
5848;DHT22;8756;49.29324300;8.70599800;2022-10-16T05:25:38;15.40;99.90
5848;DHT22;8756;49.29324300;8.70599800;2022-10-16T05:28:03;15.50;99.90
5848;DHT22;8756;49.29324300;8.70599800;2022-10-16T05:30:29;15.50;99.90
5848;DHT22;8756;49.29324300;8.70599800;2022-10-16T05:32:55;15.50;99.90
5848;DHT22;8756;49.29324300;8.70599800;2022-10-16T05:35:21;15.50;99.90
5848;DHT22;8756;49.29324300;8.70599800;2022-10-16T05:37:47;15.50;99.90
5848;DHT22;8756;49.29324300;8.70599800;2022-10-16T05:40:13;15.50;99.90
5848;DHT22;8756;49.29324300;8.70599800;2022-10-16T05:42:39;15.50;99.90
5848;DHT22;8756;49.29324300;8.70599800;2022-10-16T05:45:07;15.40;99.90
5848;DHT22;8756;49.29324300;8.70599800;2022-10-16T05:47:35;15.40;99.90
5848;DHT22;8756;49.29324300;8.70599800;2022-10-16T05:50:01;15.40;99.90
5848;DHT22;8756;49.29324300;8.70599800;2022-10-16T05:52:27;15.40;99.90
5848;DHT22;8756;49.29324300;8.70599800;2022-10-16T05:54:53;15.40;99.90
5848;DHT22;8756;49.29324300;8.70599800;2022-10-16T05:57:18;15.40;99.90
5848;DHT22;8756;49.29324300;8.70599800;2022-10-16T05:59:44;15.40;99.90
5848;DHT22;8756;49.29324300;8.70599800;2022-10-16T06:02:12;15.40;99.90
5848;DHT22;8756;49.29324300;8.70599800;2022-10-16T06:04:39;15.40;99.90
5848;DHT22;8756;49.29324300;8.70599800;2022-10-16T06:07:04;15.40;99.90
5848;DHT22;8756;49.29324300;8.70599800;2022-10-16T06:09:30;15.40;99.90
5848;DHT22;8756;49.29324300;8.70599800;2022-10-16T06:11:56;15.40;99.90
5848;DHT22;8756;49.29324300;8.70599800;2022-10-16T06:14:22;15.40;99.90
5848;DHT22;8756;49.29324300;8.70599800;2022-10-16T06:16:48;15.40;99.90
5848;DHT22;8756;49.29324300;8.70599800;2022-10-16T06:19:13;15.40;99.90
5848;DHT22;8756;49.29324300;8.70599800;2022-10-16T06:21:40;15.40;99.90
5848;DHT22;8756;49.29324300;8.70599800;2022-10-16T06:24:06;15.40;99.90
5848;DHT22;8756;49.29324300;8.70599800;2022-10-16T06:26:32;15.40;99.90
5848;DHT22;8756;49.29324300;8.70599800;2022-10-16T06:28:59;15.40;99.90
5848;DHT22;8756;49.29324300;8.70599800;2022-10-16T06:31:26;15.40;99.90
5848;DHT22;8756;49.29324300;8.70599800;2022-10-16T06:33:57;15.40;99.90
5848;DHT22;8756;49.29324300;8.70599800;2022-10-16T06:36:24;15.40;99.90
5848;DHT22;8756;49.29324300;8.70599800;2022-10-16T06:38:50;15.40;99.90
5848;DHT22;8756;49.29324300;8.70599800;2022-10-16T06:41:18;15.40;99.90
5848;DHT22;8756;49.29324300;8.70599800;2022-10-16T06:43:46;15.40;99.90
5848;DHT22;8756;49.29324300;8.70599800;2022-10-16T06:46:15;15.40;99.90
5848;DHT22;8756;49.29324300;8.70599800;2022-10-16T06:48:42;15.40;99.90
5848;DHT22;8756;49.29324300;8.70599800;2022-10-16T06:51:09;15.40;99.90
5848;DHT22;8756;49.29324300;8.70599800;2022-10-16T06:53:39;15.40;99.90
5848;DHT22;8756;49.29324300;8.70599800;2022-10-16T06:56:12;15.30;99.90
5848;DHT22;8756;49.29324300;8.70599800;2022-10-16T06:58:40;15.40;99.90
5848;DHT22;8756;49.29324300;8.70599800;2022-10-16T07:01:06;15.40;99.90
5848;DHT22;8756;49.29324300;8.70599800;2022-10-16T07:03:32;15.40;99.90
5848;DHT22;8756;49.29324300;8.70599800;2022-10-16T07:06:04;15.40;99.90
5848;DHT22;8756;49.29324300;8.70599800;2022-10-16T07:08:36;15.40;99.90
5848;DHT22;8756;49.29324300;8.70599800;2022-10-16T07:11:10;15.40;99.90
5848;DHT22;8756;49.29324300;8.70599800;2022-10-16T07:13:39;15.40;99.90
5848;DHT22;8756;49.29324300;8.70599800;2022-10-16T07:16:14;15.50;99.90
5848;DHT22;8756;49.29324300;8.70599800;2022-10-16T07:18:47;15.50;99.90
5848;DHT22;8756;49.29324300;8.70599800;2022-10-16T07:21:18;15.50;99.90
5848;DHT22;8756;49.29324300;8.70599800;2022-10-16T07:23:59;15.50;99.90
5848;DHT22;8756;49.29324300;8.70599800;2022-10-16T07:26:27;15.50;99.90
5848;DHT22;8756;49.29324300;8.70599800;2022-10-16T07:28:57;15.60;99.90
5848;DHT22;8756;49.29324300;8.70599800;2022-10-16T07:31:23;15.60;99.90
5848;DHT22;8756;49.29324300;8.70599800;2022-10-16T07:33:50;15.60;99.90
5848;DHT22;8756;49.29324300;8.70599800;2022-10-16T07:36:21;15.70;99.90
5848;DHT22;8756;49.29324300;8.70599800;2022-10-16T07:38:48;15.70;99.90
5848;DHT22;8756;49.29324300;8.70599800;2022-10-16T07:41:16;15.80;99.90
5848;DHT22;8756;49.29324300;8.70599800;2022-10-16T07:43:52;15.80;99.90
5848;DHT22;8756;49.29324300;8.70599800;2022-10-16T07:46:19;15.80;99.90
5848;DHT22;8756;49.29324300;8.70599800;2022-10-16T07:48:47;15.90;99.90
5848;DHT22;8756;49.29324300;8.70599800;2022-10-16T07:51:18;15.90;99.90
5848;DHT22;8756;49.29324300;8.70599800;2022-10-16T07:53:45;15.90;99.90
5848;DHT22;8756;49.29324300;8.70599800;2022-10-16T07:56:12;15.90;99.90
5848;DHT22;8756;49.29324300;8.70599800;2022-10-16T07:58:38;16.00;99.90
5848;DHT22;8756;49.29324300;8.70599800;2022-10-16T08:01:06;16.00;99.90
5848;DHT22;8756;49.29324300;8.70599800;2022-10-16T08:03:32;16.00;99.90
5848;DHT22;8756;49.29324300;8.70599800;2022-10-16T08:05:59;16.10;99.90
5848;DHT22;8756;49.29324300;8.70599800;2022-10-16T08:08:26;16.10;99.90
5848;DHT22;8756;49.29324300;8.70599800;2022-10-16T08:10:52;16.10;99.90
5848;DHT22;8756;49.29324300;8.70599800;2022-10-16T08:13:18;16.10;99.90
5848;DHT22;8756;49.29324300;8.70599800;2022-10-16T08:15:45;16.20;99.90
5848;DHT22;8756;49.29324300;8.70599800;2022-10-16T08:18:12;16.20;99.90
5848;DHT22;8756;49.29324300;8.70599800;2022-10-16T08:20:39;16.20;99.90
5848;DHT22;8756;49.29324300;8.70599800;2022-10-16T08:23:06;16.20;99.90
5848;DHT22;8756;49.29324300;8.70599800;2022-10-16T08:25:35;16.30;99.90
5848;DHT22;8756;49.29324300;8.70599800;2022-10-16T08:28:07;16.30;99.90
5848;DHT22;8756;49.29324300;8.70599800;2022-10-16T08:30:34;16.30;99.90
5848;DHT22;8756;49.29324300;8.70599800;2022-10-16T08:33:01;16.30;99.90
5848;DHT22;8756;49.29324300;8.70599800;2022-10-16T08:35:27;16.30;99.90
5848;DHT22;8756;49.29324300;8.70599800;2022-10-16T08:37:53;16.30;99.90
5848;DHT22;8756;49.29324300;8.70599800;2022-10-16T08:40:30;16.30;99.90
5848;DHT22;8756;49.29324300;8.70599800;2022-10-16T08:46:02;16.30;99.90
5848;DHT22;8756;49.29324300;8.70599800;2022-10-16T08:51:35;16.40;99.90
5848;DHT22;8756;49.29324300;8.70599800;2022-10-16T08:54:04;16.40;99.90
5848;DHT22;8756;49.29324300;8.70599800;2022-10-16T08:56:31;16.40;99.90
5848;DHT22;8756;49.29324300;8.70599800;2022-10-16T08:58:59;16.40;99.90
5848;DHT22;8756;49.29324300;8.70599800;2022-10-16T09:01:37;16.50;99.90
5848;DHT22;8756;49.29324300;8.70599800;2022-10-16T09:16:12;16.60;99.90
5848;DHT22;8756;49.29324300;8.70599800;2022-10-16T09:18:58;16.60;99.90
5848;DHT22;8756;49.29324300;8.70599800;2022-10-16T09:21:33;16.60;99.90
5848;DHT22;8756;49.29324300;8.70599800;2022-10-16T09:24:23;16.70;99.90
5848;DHT22;8756;49.29324300;8.70599800;2022-10-16T09:26:50;16.70;99.90
5848;DHT22;8756;49.29324300;8.70599800;2022-10-16T09:29:18;16.70;99.90
5848;DHT22;8756;49.29324300;8.70599800;2022-10-16T09:31:45;16.70;99.90
5848;DHT22;8756;49.29324300;8.70599800;2022-10-16T09:36:58;16.80;99.90
5848;DHT22;8756;49.29324300;8.70599800;2022-10-16T09:39:29;16.80;99.90
5848;DHT22;8756;49.29324300;8.70599800;2022-10-16T09:41:59;16.90;99.90
5848;DHT22;8756;49.29324300;8.70599800;2022-10-16T09:44:40;16.90;99.90
5848;DHT22;8756;49.29324300;8.70599800;2022-10-16T09:47:15;16.90;99.90
5848;DHT22;8756;49.29324300;8.70599800;2022-10-16T09:50:03;17.00;99.90
5848;DHT22;8756;49.29324300;8.70599800;2022-10-16T09:52:38;17.00;99.90
5848;DHT22;8756;49.29324300;8.70599800;2022-10-16T09:55:16;17.10;99.90
5848;DHT22;8756;49.29324300;8.70599800;2022-10-16T09:57:53;17.10;99.90
5848;DHT22;8756;49.29324300;8.70599800;2022-10-16T10:00:21;17.20;99.90
5848;DHT22;8756;49.29324300;8.70599800;2022-10-16T10:02:48;17.20;99.90
5848;DHT22;8756;49.29324300;8.70599800;2022-10-16T10:08:02;17.20;99.90
5848;DHT22;8756;49.29324300;8.70599800;2022-10-16T10:10:41;17.20;99.90
5848;DHT22;8756;49.29324300;8.70599800;2022-10-16T10:13:19;17.30;99.90
5848;DHT22;8756;49.29324300;8.70599800;2022-10-16T10:15:47;17.30;99.90
5848;DHT22;8756;49.29324300;8.70599800;2022-10-16T10:18:18;17.40;99.90
5848;DHT22;8756;49.29324300;8.70599800;2022-10-16T10:20:58;17.40;99.90
5848;DHT22;8756;49.29324300;8.70599800;2022-10-16T10:23:26;17.40;99.90
5848;DHT22;8756;49.29324300;8.70599800;2022-10-16T10:31:17;17.70;99.90
5848;DHT22;8756;49.29324300;8.70599800;2022-10-16T10:40:00;17.80;99.90
5848;DHT22;8756;49.29324300;8.70599800;2022-10-16T10:42:40;17.80;99.90
5848;DHT22;8756;49.29324300;8.70599800;2022-10-16T10:51:08;17.80;99.90
5848;DHT22;8756;49.29324300;8.70599800;2022-10-16T10:53:54;17.80;99.90
5848;DHT22;8756;49.29324300;8.70599800;2022-10-16T10:56:47;17.80;99.90
5848;DHT22;8756;49.29324300;8.70599800;2022-10-16T10:59:37;17.90;99.90
5848;DHT22;8756;49.29324300;8.70599800;2022-10-16T11:02:34;17.90;99.90
5848;DHT22;8756;49.29324300;8.70599800;2022-10-16T11:08:00;18.00;99.90
5848;DHT22;8756;49.29324300;8.70599800;2022-10-16T11:10:44;18.10;99.90
5848;DHT22;8756;49.29324300;8.70599800;2022-10-16T11:13:32;18.10;99.90
5848;DHT22;8756;49.29324300;8.70599800;2022-10-16T11:16:23;18.10;99.90
5848;DHT22;8756;49.29324300;8.70599800;2022-10-16T11:21:59;18.10;99.90
5848;DHT22;8756;49.29324300;8.70599800;2022-10-16T11:24:55;18.20;99.90
5848;DHT22;8756;49.29324300;8.70599800;2022-10-16T11:27:45;18.20;99.90
5848;DHT22;8756;49.29324300;8.70599800;2022-10-16T11:30:23;18.30;99.90
5848;DHT22;8756;49.29324300;8.70599800;2022-10-16T11:36:19;18.40;99.90
5848;DHT22;8756;49.29324300;8.70599800;2022-10-16T11:39:21;18.50;99.90
5848;DHT22;8756;49.29324300;8.70599800;2022-10-16T11:47:36;18.50;99.90
5848;DHT22;8756;49.29324300;8.70599800;2022-10-16T11:50:26;18.50;99.90
5848;DHT22;8756;49.29324300;8.70599800;2022-10-16T11:55:39;18.50;99.90
5848;DHT22;8756;49.29324300;8.70599800;2022-10-16T11:58:14;18.50;99.90
5848;DHT22;8756;49.29324300;8.70599800;2022-10-16T12:03:41;18.50;99.90
5848;DHT22;8756;49.29324300;8.70599800;2022-10-16T12:09:31;18.60;99.90
5848;DHT22;8756;49.29324300;8.70599800;2022-10-16T12:11:59;18.60;99.90
5848;DHT22;8756;49.29324300;8.70599800;2022-10-16T12:14:42;18.60;99.90
5848;DHT22;8756;49.29324300;8.70599800;2022-10-16T12:19:57;18.60;99.90
5848;DHT22;8756;49.29324300;8.70599800;2022-10-16T12:22:29;18.60;99.90
5848;DHT22;8756;49.29324300;8.70599800;2022-10-16T12:24:56;18.60;99.90
5848;DHT22;8756;49.29324300;8.70599800;2022-10-16T12:27:29;18.60;99.90
5848;DHT22;8756;49.29324300;8.70599800;2022-10-16T12:30:01;18.70;99.90
5848;DHT22;8756;49.29324300;8.70599800;2022-10-16T12:32:37;18.70;99.90
5848;DHT22;8756;49.29324300;8.70599800;2022-10-16T12:35:06;18.70;99.90
5848;DHT22;8756;49.29324300;8.70599800;2022-10-16T12:37:42;18.80;99.90
5848;DHT22;8756;49.29324300;8.70599800;2022-10-16T12:40:27;18.80;99.90
5848;DHT22;8756;49.29324300;8.70599800;2022-10-16T12:42:54;18.80;99.90
5848;DHT22;8756;49.29324300;8.70599800;2022-10-16T12:45:31;18.80;99.90
5848;DHT22;8756;49.29324300;8.70599800;2022-10-16T12:48:01;18.90;99.90
5848;DHT22;8756;49.29324300;8.70599800;2022-10-16T12:50:38;18.90;99.90
5848;DHT22;8756;49.29324300;8.70599800;2022-10-16T12:53:23;19.00;99.90
5848;DHT22;8756;49.29324300;8.70599800;2022-10-16T12:56:04;19.00;99.90
5848;DHT22;8756;49.29324300;8.70599800;2022-10-16T13:15:52;19.00;99.90
5848;DHT22;8756;49.29324300;8.70599800;2022-10-16T13:30:52;19.00;99.90
5848;DHT22;8756;49.29324300;8.70599800;2022-10-16T13:33:35;19.00;99.90
5848;DHT22;8756;49.29324300;8.70599800;2022-10-16T13:36:03;19.00;99.90
5848;DHT22;8756;49.29324300;8.70599800;2022-10-16T13:38:35;19.00;99.90
5848;DHT22;8756;49.29324300;8.70599800;2022-10-16T13:41:11;18.90;99.90
5848;DHT22;8756;49.29324300;8.70599800;2022-10-16T13:43:49;18.80;99.90
5848;DHT22;8756;49.29324300;8.70599800;2022-10-16T13:46:21;18.80;99.90
5848;DHT22;8756;49.29324300;8.70599800;2022-10-16T13:49:02;18.80;99.90
5848;DHT22;8756;49.29324300;8.70599800;2022-10-16T13:51:31;18.80;99.90
5848;DHT22;8756;49.29324300;8.70599800;2022-10-16T13:53:57;18.80;99.90
5848;DHT22;8756;49.29324300;8.70599800;2022-10-16T13:56:29;18.80;99.90
5848;DHT22;8756;49.29324300;8.70599800;2022-10-16T13:59:07;18.90;99.90
5848;DHT22;8756;49.29324300;8.70599800;2022-10-16T14:02:29;18.90;99.90
5848;DHT22;8756;49.29324300;8.70599800;2022-10-16T14:05:01;18.90;99.90
5848;DHT22;8756;49.29324300;8.70599800;2022-10-16T14:07:31;18.80;99.90
5848;DHT22;8756;49.29324300;8.70599800;2022-10-16T14:10:02;18.80;99.90
5848;DHT22;8756;49.29324300;8.70599800;2022-10-16T14:12:30;18.80;99.90
5848;DHT22;8756;49.29324300;8.70599800;2022-10-16T14:14:57;18.70;99.90
5848;DHT22;8756;49.29324300;8.70599800;2022-10-16T14:17:32;18.70;99.90
5848;DHT22;8756;49.29324300;8.70599800;2022-10-16T14:20:00;18.70;99.90
5848;DHT22;8756;49.29324300;8.70599800;2022-10-16T14:22:30;18.80;99.90
5848;DHT22;8756;49.29324300;8.70599800;2022-10-16T14:24:58;18.70;99.90
5848;DHT22;8756;49.29324300;8.70599800;2022-10-16T14:27:32;18.80;99.90
5848;DHT22;8756;49.29324300;8.70599800;2022-10-16T14:30:19;18.70;99.90
5848;DHT22;8756;49.29324300;8.70599800;2022-10-16T14:33:06;18.70;99.90
5848;DHT22;8756;49.29324300;8.70599800;2022-10-16T14:36:03;18.70;99.90
5848;DHT22;8756;49.29324300;8.70599800;2022-10-16T14:38:32;18.60;99.90
5848;DHT22;8756;49.29324300;8.70599800;2022-10-16T14:40:59;18.60;99.90
5848;DHT22;8756;49.29324300;8.70599800;2022-10-16T14:46:12;18.50;99.90
5848;DHT22;8756;49.29324300;8.70599800;2022-10-16T14:48:44;18.50;99.90
5848;DHT22;8756;49.29324300;8.70599800;2022-10-16T14:51:21;18.50;99.90
5848;DHT22;8756;49.29324300;8.70599800;2022-10-16T14:53:47;18.40;99.90
5848;DHT22;8756;49.29324300;8.70599800;2022-10-16T14:56:18;18.40;99.90
5848;DHT22;8756;49.29324300;8.70599800;2022-10-16T14:58:45;18.40;99.90
5848;DHT22;8756;49.29324300;8.70599800;2022-10-16T15:01:11;18.40;99.90
5848;DHT22;8756;49.29324300;8.70599800;2022-10-16T15:03:37;18.40;99.90
5848;DHT22;8756;49.29324300;8.70599800;2022-10-16T15:06:04;18.40;99.90
5848;DHT22;8756;49.29324300;8.70599800;2022-10-16T15:08:36;18.40;99.90
5848;DHT22;8756;49.29324300;8.70599800;2022-10-16T15:11:02;18.40;99.90
5848;DHT22;8756;49.29324300;8.70599800;2022-10-16T15:13:28;18.50;99.90
5848;DHT22;8756;49.29324300;8.70599800;2022-10-16T15:15:53;18.60;99.90
5848;DHT22;8756;49.29324300;8.70599800;2022-10-16T15:18:19;18.70;99.90
5848;DHT22;8756;49.29324300;8.70599800;2022-10-16T15:20:48;18.70;99.90
5848;DHT22;8756;49.29324300;8.70599800;2022-10-16T15:23:16;18.80;99.90
5848;DHT22;8756;49.29324300;8.70599800;2022-10-16T15:25:46;18.80;99.90
5848;DHT22;8756;49.29324300;8.70599800;2022-10-16T15:28:14;18.80;99.90
5848;DHT22;8756;49.29324300;8.70599800;2022-10-16T15:30:41;18.80;99.90
5848;DHT22;8756;49.29324300;8.70599800;2022-10-16T15:33:34;18.80;99.90
5848;DHT22;8756;49.29324300;8.70599800;2022-10-16T15:36:01;18.70;99.90
5848;DHT22;8756;49.29324300;8.70599800;2022-10-16T15:38:28;18.60;99.90
5848;DHT22;8756;49.29324300;8.70599800;2022-10-16T15:40:55;18.60;99.90
5848;DHT22;8756;49.29324300;8.70599800;2022-10-16T15:43:21;18.50;99.90
5848;DHT22;8756;49.29324300;8.70599800;2022-10-16T15:46:13;18.50;99.90
5848;DHT22;8756;49.29324300;8.70599800;2022-10-16T15:48:42;18.40;99.90
5848;DHT22;8756;49.29324300;8.70599800;2022-10-16T15:51:08;18.40;99.90
5848;DHT22;8756;49.29324300;8.70599800;2022-10-16T15:53:35;18.40;99.90
5848;DHT22;8756;49.29324300;8.70599800;2022-10-16T15:56:05;18.40;99.90
5848;DHT22;8756;49.29324300;8.70599800;2022-10-16T15:58:32;18.30;99.90
5848;DHT22;8756;49.29324300;8.70599800;2022-10-16T16:00:59;18.30;99.90
5848;DHT22;8756;49.29324300;8.70599800;2022-10-16T16:03:33;18.30;99.90
5848;DHT22;8756;49.29324300;8.70599800;2022-10-16T16:06:04;18.30;99.90
5848;DHT22;8756;49.29324300;8.70599800;2022-10-16T16:08:31;18.30;99.90
5848;DHT22;8756;49.29324300;8.70599800;2022-10-16T16:11:03;18.30;99.90
5848;DHT22;8756;49.29324300;8.70599800;2022-10-16T16:13:40;18.30;99.90
5848;DHT22;8756;49.29324300;8.70599800;2022-10-16T16:16:11;18.20;99.90
5848;DHT22;8756;49.29324300;8.70599800;2022-10-16T16:18:39;18.20;99.90